Time;durP1;ratioP1;P1;durP2;ratioP2;P2;SDS_P1;SDS_P2;PMS_P1;PMS_P2;Temp;Humidity;BMP_temperature;BMP_pressure;BME280_temperature;BME280_humidity;BME280_pressure;Samples;Min_cycle;Max_cycle;Signal;HPM_P1;HPM_P2
2022/07/28 00:00:24;;;;;;;3.92;1.60;;;;;;;-144.47;45.11;53187.78;5016275;28;20602;-72
2022/07/28 00:02:49;;;;;;;7.15;1.85;;;;;;;-144.47;45.16;53217.59;5016591;28;20026;-72
2022/07/28 00:05:15;;;;;;;8.65;1.85;;;;;;;-144.47;45.35;53243.41;5011368;28;20034;-72
2022/07/28 00:07:40;;;;;;;9.00;2.72;;;;;;;-144.47;45.41;53219.56;5010687;28;20022;-72
2022/07/28 00:10:07;;;;;;;10.05;1.90;;;;;;;-144.47;45.48;53223.56;5011022;28;20407;-73
2022/07/28 00:12:32;;;;;;;8.68;2.13;;;;;;;-144.47;45.64;53191.78;5027387;28;20397;-72
2022/07/28 00:14:58;;;;;;;5.40;1.48;;;;;;;-144.47;46.03;53201.69;5011000;28;20022;-70
2022/07/28 00:17:23;;;;;;;9.25;2.10;;;;;;;-144.47;46.10;53223.56;5009751;28;20117;-71
2022/07/28 00:19:49;;;;;;;5.80;1.50;;;;;;;-144.47;46.10;53215.59;5011262;28;20049;-71
2022/07/28 00:22:15;;;;;;;10.27;2.35;;;;;;;-144.47;46.15;53225.53;5010197;28;20068;-71
2022/07/28 00:24:40;;;;;;;6.28;1.25;;;;;;;-144.47;46.35;53183.81;5012440;28;20030;-69
2022/07/28 00:27:06;;;;;;;6.57;1.70;;;;;;;-144.47;46.63;53158.00;5011199;28;20033;-73
2022/07/28 00:29:31;;;;;;;7.28;1.67;;;;;;;-144.47;46.71;53203.69;5012198;28;20111;-71
2022/07/28 00:31:57;;;;;;;5.15;1.30;;;;;;;-144.47;46.93;53189.78;5026908;28;20068;-72
2022/07/28 00:34:22;;;;;;;7.60;1.85;;;;;;;-144.47;47.08;53235.47;5011826;28;20034;-69
2022/07/28 00:36:47;;;;;;;3.78;1.33;;;;;;;-144.47;47.34;53205.66;5011590;28;20029;-72
2022/07/28 00:39:13;;;;;;;9.93;1.83;;;;;;;-144.47;47.51;53237.44;5026341;28;20022;-72
2022/07/28 00:41:38;;;;;;;9.52;1.90;;;;;;;-144.47;47.66;53235.47;5012088;28;20112;-72
2022/07/28 00:44:06;;;;;;;3.63;1.60;;;;;;;-144.47;47.65;53243.41;5012102;28;20029;-71
2022/07/28 00:46:32;;;;;;;5.68;1.58;;;;;;;-144.47;47.79;53221.56;4994206;28;20366;-71
2022/07/28 00:48:57;;;;;;;13.30;1.92;;;;;;;-144.47;47.88;53257.31;5010603;28;20021;-72
2022/07/28 00:51:25;;;;;;;4.88;1.33;;;;;;;-144.47;47.81;53233.47;5027127;28;20050;-71
2022/07/28 00:53:52;;;;;;;5.60;1.67;;;;;;;-144.47;48.04;53221.56;4993291;28;20176;-73
2022/07/28 00:56:18;;;;;;;15.75;1.90;;;;;;;-144.47;47.87;53237.44;5010304;28;20025;-71
2022/07/28 00:58:46;;;;;;;8.02;1.80;;;;;;;-144.47;48.04;53241.44;5009656;28;20046;-73
2022/07/28 01:01:14;;;;;;;16.30;3.80;;;;;;;-144.47;48.34;53197.72;5010238;28;20049;-73
2022/07/28 01:03:43;;;;;;;8.75;1.70;;;;;;;-144.47;48.57;53269.22;5009995;28;20036;-72
2022/07/28 01:06:15;;;;;;;6.57;1.35;;;;;;;-144.47;48.71;53245.41;5011547;28;20475;-76
2022/07/28 01:09:20;;;;;;;8.48;1.52;;;;;;;-144.47;48.99;53225.53;5009027;28;20030;-72
2022/07/28 01:12:00;;;;;;;6.68;1.75;;;;;;;-144.47;49.10;53211.63;5013714;28;20542;-71
2022/07/28 01:14:37;;;;;;;6.07;1.45;;;;;;;-144.47;49.46;53205.66;5011115;28;20030;-69
2022/07/28 01:17:21;;;;;;;10.90;1.67;;;;;;;-144.47;49.66;53275.19;5008705;28;20034;-68
2022/07/28 01:20:06;;;;;;;6.80;1.80;;;;;;;-144.47;49.98;53229.50;5011172;28;20105;-70
2022/07/28 01:22:37;;;;;;;4.60;1.50;;;;;;;-144.47;50.04;53225.53;5010134;28;20029;-69
2022/07/28 01:25:40;;;;;;;12.80;1.50;;;;;;;-144.47;50.22;53247.38;5009446;28;20049;-69
2022/07/28 01:28:27;;;;;;;5.22;1.67;;;;;;;-144.47;50.41;53257.31;5008430;28;20136;-69
2022/07/28 01:31:01;;;;;;;3.40;1.30;;;;;;;-144.47;50.43;53205.66;5009764;28;20388;-67
2022/07/28 01:33:34;;;;;;;5.38;1.65;;;;;;;-144.47;50.43;53259.31;5009089;28;20030;-68
2022/07/28 01:36:09;;;;;;;24.92;5.40;;;;;;;-144.47;50.63;53273.22;4997721;28;20487;-69
2022/07/28 01:38:37;;;;;;;8.45;1.92;;;;;;;-144.47;50.48;53261.28;5007871;28;20503;-69
2022/07/28 01:41:06;;;;;;;7.78;1.90;;;;;;;-144.47;50.84;53241.44;5009119;28;20022;-69
2022/07/28 01:43:35;;;;;;;6.15;1.98;;;;;;;-144.47;50.97;53225.53;5010647;28;20029;-67
2022/07/28 01:46:02;;;;;;;6.63;1.83;;;;;;;-144.47;50.92;53269.22;5028859;28;20022;-68
2022/07/28 01:48:30;;;;;;;5.10;1.50;;;;;;;-144.47;51.10;53269.22;5029063;28;20032;-70
2022/07/28 01:50:56;;;;;;;8.30;1.60;;;;;;;-144.47;51.18;53241.44;5028969;28;20025;-70
2022/07/28 01:53:24;;;;;;;9.85;2.10;;;;;;;-144.47;51.20;53223.56;5028818;28;20148;-70
2022/07/28 01:55:51;;;;;;;8.65;2.10;;;;;;;-144.47;51.29;53271.22;5028513;28;20436;-70
2022/07/28 01:58:21;;;;;;;11.93;1.92;;;;;;;-144.47;51.46;53253.34;5009495;28;20033;-71
2022/07/28 02:00:50;;;;;;;8.50;1.85;;;;;;;-144.47;51.46;53209.66;5010231;28;20407;-69
2022/07/28 02:03:22;;;;;;;4.10;1.73;;;;;;;-144.47;51.44;53249.38;5010494;28;20022;-72
2022/07/28 02:05:51;;;;;;;8.45;1.95;;;;;;;-144.47;51.45;53261.28;5010095;28;20026;-68
2022/07/28 02:08:22;;;;;;;5.38;1.98;;;;;;;-144.47;51.56;53229.50;5006955;28;20034;-69
2022/07/28 02:13:37;;;;;;;12.13;2.42;;;;;;;-144.47;51.85;53237.44;5010413;28;20039;-70
2022/07/28 02:16:07;;;;;;;14.48;2.28;;;;;;;-144.47;51.84;53247.38;5007198;28;20485;-69
2022/07/28 02:18:34;;;;;;;8.18;2.00;;;;;;;-144.47;51.68;53251.34;5029017;28;20082;-68
2022/07/28 02:21:02;;;;;;;5.38;1.75;;;;;;;-144.47;51.85;53251.34;5011947;28;20040;-69
2022/07/28 02:23:28;;;;;;;8.40;1.88;;;;;;;-144.47;51.74;53217.59;5007599;28;20411;-69
2022/07/28 02:25:56;;;;;;;6.57;1.67;;;;;;;-144.47;51.97;53241.44;5010074;28;20029;-69
2022/07/28 02:28:26;;;;;;;16.27;2.30;;;;;;;-144.47;52.10;53287.13;4992653;28;20025;-69
2022/07/28 02:31:09;;;;;;;7.32;1.85;;;;;;;-144.47;52.34;53269.22;5026450;28;20032;-69
2022/07/28 02:33:38;;;;;;;5.35;1.80;;;;;;;-144.47;52.41;53225.53;4992754;28;20033;-70
2022/07/28 02:36:10;;;;;;;8.05;1.85;;;;;;;-144.47;52.44;53237.44;4997262;28;20030;-70
2022/07/28 02:38:40;;;;;;;5.55;1.85;;;;;;;-144.47;52.49;53257.31;5008201;28;20493;-69
2022/07/28 02:41:17;;;;;;;6.45;1.70;;;;;;;-144.47;52.68;53229.50;5008517;28;20431;-69
2022/07/28 02:43:45;;;;;;;9.35;2.10;;;;;;;-144.47;52.87;53249.38;5009711;28;20022;-68
2022/07/28 02:46:15;;;;;;;7.10;1.90;;;;;;;-144.47;52.98;53243.41;4991893;28;20510;-71
2022/07/28 02:48:45;;;;;;;6.07;1.80;;;;;;;-144.47;53.24;53271.22;5009059;28;20049;-71
2022/07/28 02:51:12;;;;;;;5.00;1.80;;;;;;;-144.47;53.32;53205.66;5008134;28;20392;-69
2022/07/28 02:53:38;;;;;;;5.95;1.60;;;;;;;-144.47;53.52;53237.44;5008612;28;20026;-68
2022/07/28 02:56:05;;;;;;;4.53;1.50;;;;;;;-144.47;53.64;53251.34;5008841;28;20108;-69
2022/07/28 02:58:32;;;;;;;12.95;2.03;;;;;;;-144.47;53.98;53265.25;5009372;28;20486;-67
2022/07/28 03:00:59;;;;;;;7.38;2.10;;;;;;;-144.47;54.21;53285.13;5024749;28;20021;-67
2022/07/28 03:03:25;;;;;;;8.00;1.90;;;;;;;-144.47;54.36;53209.66;5028203;28;20113;-68
2022/07/28 03:05:51;;;;;;;6.30;1.85;;;;;;;-144.47;54.64;53261.28;5011377;28;20032;-65
2022/07/28 03:08:17;;;;;;;8.75;2.20;;;;;;;-144.47;54.75;53269.22;5027334;28;20026;-68
2022/07/28 03:10:42;;;;;;;11.02;2.17;;;;;;;-144.47;55.10;53277.19;5027745;28;20021;-65
2022/07/28 03:13:08;;;;;;;17.50;3.20;;;;;;;-144.47;55.27;53245.41;5027786;28;20025;-69
2022/07/28 03:15:35;;;;;;;8.25;2.30;;;;;;;-144.47;55.24;53257.31;5000031;28;20030;-71
2022/07/28 03:18:02;;;;;;;10.32;1.98;;;;;;;-144.47;55.43;53273.22;5008344;28;20037;-70
2022/07/28 03:20:29;;;;;;;7.35;2.10;;;;;;;-144.47;55.55;53261.28;5007997;28;20137;-70
2022/07/28 03:22:54;;;;;;;13.55;1.92;;;;;;;-144.47;55.70;53233.47;5008198;28;20373;-70
2022/07/28 03:25:34;;;;;;;8.25;1.77;;;;;;;-144.47;55.62;53279.16;5008120;28;20475;-70
2022/07/28 03:28:01;;;;;;;8.50;2.22;;;;;;;-144.47;55.95;53249.38;4992964;28;20022;-70
2022/07/28 03:30:31;;;;;;;12.02;1.88;;;;;;;-144.47;55.96;53237.44;5011199;28;20034;-71
2022/07/28 03:32:59;;;;;;;8.18;2.13;;;;;;;-144.47;56.09;53273.22;5027807;28;20022;-70
2022/07/28 03:35:26;;;;;;;5.70;2.15;;;;;;;-144.47;56.18;53277.19;5025866;28;20021;-71
2022/07/28 03:37:56;;;;;;;12.32;2.28;;;;;;;-144.47;56.16;53209.66;5045935;28;20032;-69
2022/07/28 03:40:28;;;;;;;19.23;2.70;;;;;;;-144.47;56.18;53237.44;5047711;28;20041;-69
2022/07/28 03:42:55;;;;;;;14.10;2.47;;;;;;;-144.47;56.02;53241.44;5015293;28;20078;-71
2022/07/28 03:45:22;;;;;;;12.93;2.50;;;;;;;-144.47;56.27;53227.53;5032281;28;20073;-71
2022/07/28 03:47:49;;;;;;;7.72;2.38;;;;;;;-144.47;56.31;53231.50;5046661;28;20025;-69
2022/07/28 03:50:15;;;;;;;13.13;2.53;;;;;;;-144.47;56.45;53263.28;5031843;28;20025;-70
2022/07/28 03:52:40;;;;;;;8.68;2.80;;;;;;;-144.47;56.71;53253.34;5031284;28;20021;-70
2022/07/28 03:55:07;;;;;;;6.80;2.30;;;;;;;-144.47;56.67;53295.06;5032015;28;20112;-72
2022/07/28 03:57:32;;;;;;;7.72;3.00;;;;;;;-144.47;56.85;53289.09;5032428;28;20061;-68
2022/07/28 03:59:58;;;;;;;10.40;2.47;;;;;;;-144.47;57.06;53251.34;5012183;28;20447;-70
2022/07/28 04:02:23;;;;;;;10.80;2.50;;;;;;;-144.47;57.17;53265.25;5011974;28;20032;-69
2022/07/28 04:04:48;;;;;;;6.80;2.38;;;;;;;-144.47;56.77;53235.47;5012247;28;20026;-66
2022/07/28 04:07:14;;;;;;;16.95;3.33;;;;;;;-144.47;56.71;53271.22;5010653;28;20110;-70
2022/07/28 04:09:39;;;;;;;8.57;2.70;;;;;;;-144.47;56.41;53227.53;5011957;28;20022;-69
2022/07/28 04:12:05;;;;;;;10.10;2.60;;;;;;;-144.47;56.14;53287.13;5010340;28;20756;-70
2022/07/28 04:14:30;;;;;;;6.30;2.40;;;;;;;-144.47;56.22;53271.22;5011919;28;20257;-71
2022/07/28 04:16:56;;;;;;;8.57;1.88;;;;;;;-144.47;56.09;53237.44;5026245;28;20080;-70
2022/07/28 04:19:21;;;;;;;6.88;2.22;;;;;;;-144.47;56.02;53281.16;5026787;28;20040;-70
2022/07/28 04:21:46;;;;;;;8.02;2.17;;;;;;;-144.47;56.14;53249.38;4977816;28;20025;-71
2022/07/28 04:24:12;;;;;;;9.73;2.47;;;;;;;-144.47;56.24;53261.28;5009901;28;20083;-71
2022/07/28 04:26:37;;;;;;;5.72;2.30;;;;;;;-144.47;56.12;53249.38;5009895;28;20021;-69
2022/07/28 04:29:03;;;;;;;11.30;3.15;;;;;;;-144.47;55.96;53259.31;5010066;28;20425;-72
2022/07/28 04:31:29;;;;;;;9.13;2.33;;;;;;;-144.47;55.78;53229.50;4994380;28;20026;-71
2022/07/28 04:33:55;;;;;;;7.60;2.15;;;;;;;-144.47;55.64;53235.47;5003431;28;20036;-71
2022/07/28 04:36:20;;;;;;;14.32;2.30;;;;;;;-144.47;55.70;53269.22;5011675;28;20030;-70
2022/07/28 04:38:45;;;;;;;18.10;2.40;;;;;;;-144.47;55.53;53225.53;5024939;28;20030;-71
2022/07/28 04:41:11;;;;;;;10.10;2.80;;;;;;;-144.47;55.40;53225.53;5011388;28;20511;-70
2022/07/28 04:43:37;;;;;;;13.75;2.03;;;;;;;-144.47;55.01;53277.19;4993851;28;20121;-69
2022/07/28 04:46:03;;;;;;;18.27;2.88;;;;;;;-144.47;55.31;53247.38;5011750;28;20071;-72
2022/07/28 04:48:28;;;;;;;7.82;2.35;;;;;;;-144.47;55.02;53259.31;5008880;28;20026;-72
2022/07/28 04:50:53;;;;;;;10.38;1.95;;;;;;;-144.47;54.89;53225.53;5010478;28;20029;-72
2022/07/28 04:53:20;;;;;;;6.18;2.17;;;;;;;-144.47;54.86;53263.28;5010871;28;20099;-73
2022/07/28 04:55:46;;;;;;;7.43;1.95;;;;;;;-144.47;54.50;53285.13;4994261;28;20022;-73
2022/07/28 04:58:11;;;;;;;6.20;2.38;;;;;;;-144.47;54.36;53233.47;5008994;28;20064;-74
2022/07/28 05:00:37;;;;;;;11.95;2.58;;;;;;;-144.47;54.24;53239.44;5011204;28;20088;-72
2022/07/28 05:03:03;;;;;;;10.50;2.40;;;;;;;-144.47;54.07;53247.38;5009327;28;20032;-70
2022/07/28 05:05:28;;;;;;;9.70;2.33;;;;;;;-144.47;53.60;53225.53;5011726;28;20123;-69
2022/07/28 05:07:54;;;;;;;5.40;1.92;;;;;;;-144.47;53.61;53233.47;5008552;28;20476;-67
2022/07/28 05:10:20;;;;;;;10.25;2.20;;;;;;;-144.47;53.54;53241.44;5010884;28;20021;-67
2022/07/28 05:12:46;;;;;;;6.97;2.03;;;;;;;-144.47;53.17;53231.50;5010898;28;20022;-69
2022/07/28 05:15:12;;;;;;;9.25;2.47;;;;;;;-144.47;52.37;53217.59;5009609;28;20030;-67
2022/07/28 05:17:37;;;;;;;24.98;3.60;;;;;;;-144.47;52.76;53247.38;5008460;28;20033;-67
2022/07/28 05:20:04;;;;;;;12.63;2.78;;;;;;;-144.47;52.26;53243.41;5009449;28;20026;-67
2022/07/28 05:22:44;;;;;;;11.45;2.83;;;;;;;-144.47;52.14;53231.50;4992647;28;20034;-68
2022/07/28 05:25:14;;;;;;;9.43;2.15;;;;;;;-144.47;51.84;53179.84;5009583;28;20673;-70
2022/07/28 05:27:39;;;;;;;16.88;2.20;;;;;;;-144.47;51.54;53245.41;5010288;28;20021;-70
2022/07/28 05:30:05;;;;;;;9.32;2.03;;;;;;;-144.47;51.15;53219.56;5008817;28;20033;-69
2022/07/28 05:32:30;;;;;;;10.65;2.13;;;;;;;-144.47;50.70;53221.56;5008843;28;20368;-70
2022/07/28 05:34:58;;;;;;;8.20;2.00;;;;;;;-144.47;50.43;53235.47;5020107;28;20244;-71
2022/07/28 05:37:23;;;;;;;7.22;2.33;;;;;;;-144.47;50.30;53221.56;5043153;28;20357;-71
2022/07/28 05:39:49;;;;;;;10.25;2.85;;;;;;;-144.47;50.99;53217.59;5029276;28;20108;-70
2022/07/28 05:42:14;;;;;;;9.30;2.22;;;;;;;-144.47;50.70;53229.50;5045569;28;20025;-70
2022/07/28 05:44:39;;;;;;;10.20;2.50;;;;;;;-144.47;50.59;53267.25;5045096;28;20044;-70
2022/07/28 05:47:05;;;;;;;6.63;2.20;;;;;;;-144.47;50.25;53249.38;5011398;28;20475;-70
2022/07/28 05:49:30;;;;;;;5.68;1.70;;;;;;;-144.47;50.25;53199.72;5028640;28;20021;-68
2022/07/28 05:51:56;;;;;;;8.10;2.28;;;;;;;-144.47;50.06;53209.66;5010517;28;20230;-70
2022/07/28 05:54:21;;;;;;;10.82;2.13;;;;;;;-144.47;50.22;53195.75;5029412;28;20108;-67
2022/07/28 05:56:47;;;;;;;9.23;2.28;;;;;;;-144.47;50.00;53247.38;5019870;28;20053;-70
2022/07/28 05:59:13;;;;;;;11.50;2.22;;;;;;;-144.47;50.08;53177.88;5019419;28;20033;-69
2022/07/28 06:01:39;;;;;;;8.07;2.03;;;;;;;-144.47;50.35;53235.47;5028200;28;20543;-70
2022/07/28 06:04:04;;;;;;;11.35;2.22;;;;;;;-144.47;49.95;53229.50;5044724;28;20120;-70
2022/07/28 06:06:30;;;;;;;9.40;2.05;;;;;;;-144.47;49.94;53203.69;5011763;28;20092;-70
2022/07/28 06:08:55;;;;;;;10.77;2.10;;;;;;;-144.47;49.69;53199.72;5010000;28;20026;-70
2022/07/28 06:11:21;;;;;;;7.22;1.92;;;;;;;-144.47;49.69;53247.38;5008740;28;20025;-69
2022/07/28 06:13:47;;;;;;;23.38;2.72;;;;;;;-144.47;49.95;53219.56;5008894;28;20040;-71
2022/07/28 06:16:13;;;;;;;10.30;2.13;;;;;;;-144.47;49.88;53229.50;5008323;28;20026;-72
2022/07/28 06:18:38;;;;;;;8.15;2.28;;;;;;;-144.47;50.10;53179.84;5008166;28;20033;-68
2022/07/28 06:21:03;;;;;;;9.75;2.30;;;;;;;-144.47;49.68;53219.56;5008758;28;20505;-69
2022/07/28 06:23:29;;;;;;;7.65;1.90;;;;;;;-144.47;49.41;53231.50;5024236;28;20025;-71
2022/07/28 06:25:54;;;;;;;15.05;2.63;;;;;;;-144.47;49.78;53173.88;4992321;28;20448;-67
2022/07/28 06:28:20;;;;;;;7.72;2.40;;;;;;;-144.47;49.85;53209.66;5007952;28;20018;-67
2022/07/28 06:30:48;;;;;;;8.20;2.40;;;;;;;-144.47;49.76;53207.66;5008801;28;20252;-70
2022/07/28 06:33:15;;;;;;;6.82;1.90;;;;;;;-144.47;49.16;53185.81;5008887;28;20030;-68
2022/07/28 06:35:41;;;;;;;9.40;1.80;;;;;;;-144.47;49.48;53233.47;5008916;28;20030;-72
2022/07/28 06:38:06;;;;;;;11.30;2.28;;;;;;;-144.47;49.33;53167.94;5007820;28;20033;-70
2022/07/28 06:40:32;;;;;;;8.75;2.05;;;;;;;-144.47;49.45;53205.66;5009013;28;20479;-72
2022/07/28 06:42:57;;;;;;;10.85;1.90;;;;;;;-144.47;49.23;53227.53;5010125;28;20022;-71
2022/07/28 06:45:22;;;;;;;8.38;2.00;;;;;;;-144.47;49.42;53205.66;5033457;28;20039;-70
2022/07/28 06:47:49;;;;;;;7.72;2.33;;;;;;;-144.47;49.01;53237.44;5043308;28;20177;-70
2022/07/28 06:50:15;;;;;;;12.43;2.50;;;;;;;-144.47;49.21;53195.75;5040317;28;20029;-71
2022/07/28 06:52:40;;;;;;;16.52;1.90;;;;;;;-144.47;48.89;53247.38;5027228;28;20053;-71
2022/07/28 06:55:06;;;;;;;8.35;2.08;;;;;;;-144.47;48.71;53251.34;5008354;28;20029;-72
2022/07/28 06:57:32;;;;;;;8.52;1.88;;;;;;;-144.47;48.84;53193.75;5013484;28;20476;-72
2022/07/28 06:59:58;;;;;;;13.88;1.92;;;;;;;-144.47;47.60;53179.84;5008078;28;20376;-72
2022/07/28 07:02:24;;;;;;;7.47;1.95;;;;;;;-144.47;48.19;53215.59;5009955;28;20041;-73
2022/07/28 07:04:50;;;;;;;7.15;2.08;;;;;;;-144.47;48.01;53229.50;5013494;28;20026;-72
2022/07/28 07:07:16;;;;;;;8.98;1.58;;;;;;;-144.47;47.85;53207.66;5011542;28;20034;-72
2022/07/28 07:09:42;;;;;;;7.00;1.73;;;;;;;-144.47;47.77;53197.72;5028687;28;20506;-72
2022/07/28 07:12:07;;;;;;;11.18;2.40;;;;;;;-144.47;47.27;53173.88;5011909;28;20284;-72
2022/07/28 07:14:33;;;;;;;10.93;2.00;;;;;;;-144.47;46.40;53173.88;5029177;28;20033;-71
2022/07/28 07:16:58;;;;;;;10.43;3.00;;;;;;;-144.47;46.04;53154.03;5032918;28;20029;-72
2022/07/28 07:19:23;;;;;;;9.80;1.92;;;;;;;-144.47;45.60;53233.47;5032719;28;20025;-73
2022/07/28 07:21:50;;;;;;;12.40;1.90;;;;;;;-144.47;45.58;53195.75;5049917;28;20049;-73
2022/07/28 07:24:15;;;;;;;11.75;2.58;;;;;;;-144.47;45.45;53197.72;5034825;28;20029;-74
2022/07/28 07:26:41;;;;;;;7.25;1.65;;;;;;;-144.47;44.62;53183.81;5003847;28;20023;-73
2022/07/28 07:29:07;;;;;;;6.18;1.70;;;;;;;-144.47;44.42;53201.69;4997538;28;20029;-74
2022/07/28 07:31:37;;;;;;;7.30;1.38;;;;;;;-144.47;44.66;53183.81;4996166;28;20030;-71
2022/07/28 07:34:03;;;;;;;9.35;1.83;;;;;;;-144.47;44.05;53201.69;5012546;28;20076;-70
2022/07/28 07:36:28;;;;;;;6.93;1.40;;;;;;;-144.47;44.29;53199.72;5011753;28;20022;-74
2022/07/28 07:38:54;;;;;;;10.88;1.50;;;;;;;-144.47;44.10;53158.00;5027890;28;20050;-74
2022/07/28 07:41:19;;;;;;;6.50;1.70;;;;;;;-144.47;44.19;53215.59;5022429;28;20479;-73
2022/07/28 07:43:46;;;;;;;15.55;1.88;;;;;;;-144.47;43.86;53179.84;5031671;28;20022;-74
2022/07/28 07:46:12;;;;;;;9.25;1.88;;;;;;;-144.47;43.56;53211.63;5032927;28;20017;-73
2022/07/28 07:48:37;;;;;;;11.23;2.05;;;;;;;-144.47;43.45;53156.00;5030895;28;20048;-74
2022/07/28 07:51:03;;;;;;;5.90;1.75;;;;;;;-144.47;43.15;53173.88;5023070;28;20114;-70
2022/07/28 07:53:28;;;;;;;10.25;1.50;;;;;;;-144.47;43.22;53191.78;5027228;28;20021;-73
2022/07/28 07:55:54;;;;;;;10.45;1.73;;;;;;;-144.47;43.00;53167.94;5011978;28;20025;-72
2022/07/28 07:58:20;;;;;;;7.75;2.22;;;;;;;-144.47;42.87;53165.94;4990599;28;20023;-73
2022/07/28 08:00:45;;;;;;;13.98;1.55;;;;;;;-144.47;42.35;53189.78;5012625;28;20032;-71
2022/07/28 08:03:11;;;;;;;11.75;1.70;;;;;;;-144.47;41.73;53136.16;5031210;28;20435;-71
2022/07/28 08:05:36;;;;;;;11.50;1.52;;;;;;;-144.47;41.13;53148.06;5033644;28;20251;-70
2022/07/28 08:08:03;;;;;;;12.63;1.83;;;;;;;-144.47;41.16;53152.03;5005334;28;20121;-70
2022/07/28 08:10:29;;;;;;;15.25;2.15;;;;;;;-144.47;41.21;53193.75;5010526;28;20082;-69
2022/07/28 08:12:54;;;;;;;10.32;2.22;;;;;;;-144.47;41.12;53197.72;5009607;28;20030;-67
2022/07/28 08:15:20;;;;;;;6.43;1.50;;;;;;;-144.47;40.60;53181.84;5009702;28;20329;-67
2022/07/28 08:17:45;;;;;;;15.68;1.83;;;;;;;-144.47;40.71;53142.09;5010431;28;20045;-67
2022/07/28 08:20:11;;;;;;;11.90;2.05;;;;;;;-144.47;40.36;53152.03;5011530;28;20030;-70
2022/07/28 08:22:54;;;;;;;5.47;1.65;;;;;;;-144.47;40.47;53163.97;5010542;28;20018;-65
2022/07/28 08:25:20;;;;;;;8.43;1.52;;;;;;;-144.47;40.02;53183.81;5011707;28;20033;-70
2022/07/28 08:27:46;;;;;;;11.38;2.03;;;;;;;-144.47;39.90;53158.00;5009246;28;20022;-69
2022/07/28 08:30:17;;;;;;;9.73;1.65;;;;;;;-144.47;39.31;53158.00;5019427;22;20519;-67
2022/07/28 08:32:42;;;;;;;8.88;1.67;;;;;;;-144.47;39.20;53156.00;5031616;28;20022;-66
2022/07/28 08:35:08;;;;;;;7.47;1.65;;;;;;;-144.47;38.64;53144.09;5037863;28;20040;-68
2022/07/28 08:37:34;;;;;;;8.38;1.55;;;;;;;-144.47;38.61;53124.22;5028185;28;20124;-67
2022/07/28 08:39:59;;;;;;;7.93;1.40;;;;;;;-144.47;38.38;53158.00;5030167;28;20082;-68
2022/07/28 08:42:32;;;;;;;5.20;1.70;;;;;;;-144.47;38.00;53150.06;5012428;28;20025;-66
2022/07/28 08:45:03;;;;;;;9.43;1.83;;;;;;;-144.47;38.11;53120.25;4994502;28;20033;-66
2022/07/28 08:47:30;;;;;;;8.20;1.77;;;;;;;-144.47;37.82;53136.16;5000110;28;20036;-65
2022/07/28 08:49:58;;;;;;;10.02;1.65;;;;;;;-144.47;37.57;53144.09;5029948;28;20174;-68
2022/07/28 08:52:27;;;;;;;5.65;1.88;;;;;;;-144.47;37.45;53163.97;5030442;28;20063;-68
2022/07/28 08:54:55;;;;;;;11.27;1.85;;;;;;;-144.47;37.77;53158.00;5011476;28;20030;-66
2022/07/28 08:57:33;;;;;;;6.53;1.85;;;;;;;-144.47;36.90;53122.25;4989917;28;20536;-69
2022/07/28 08:59:58;;;;;;;5.63;1.40;;;;;;;-144.47;37.00;53124.22;5007090;28;20469;-67
2022/07/28 09:02:26;;;;;;;10.32;1.58;;;;;;;-144.47;37.16;53114.31;5009697;28;20104;-69
2022/07/28 09:04:57;;;;;;;11.88;2.33;;;;;;;-144.47;36.75;53142.09;5010225;28;20411;-66
2022/07/28 09:07:23;;;;;;;11.60;1.77;;;;;;;-144.47;36.43;53120.25;4991676;28;20238;-67
2022/07/28 09:09:49;;;;;;;5.13;1.45;;;;;;;-144.47;36.51;53114.31;4992772;28;20510;-67
2022/07/28 09:12:15;;;;;;;9.55;1.35;;;;;;;-144.47;36.40;53167.94;4993308;28;20026;-67
2022/07/28 09:14:41;;;;;;;15.60;1.65;;;;;;;-144.47;36.23;53142.09;4993367;28;20116;-66
2022/07/28 09:17:06;;;;;;;16.83;1.88;;;;;;;-144.47;36.13;53132.19;4992857;28;20150;-66
2022/07/28 09:19:32;;;;;;;5.57;1.40;;;;;;;-144.47;36.42;53150.06;5014641;28;20026;-66
2022/07/28 09:21:58;;;;;;;10.57;1.63;;;;;;;-144.47;35.93;53102.38;5029937;28;20479;-65
2022/07/28 09:24:43;;;;;;;9.25;1.85;;;;;;;-144.47;35.68;53161.97;5028251;28;20083;-69
2022/07/28 09:27:10;;;;;;;6.28;1.20;;;;;;;-144.47;35.60;53140.13;5011501;28;20026;-67
2022/07/28 09:29:38;;;;;;;11.35;1.50;;;;;;;-144.47;34.47;53098.41;5009034;28;20029;-67
2022/07/28 09:32:04;;;;;;;8.75;1.30;;;;;;;-144.47;34.67;53120.25;5023707;28;20044;-66
2022/07/28 09:34:43;;;;;;;5.90;2.08;;;;;;;-144.47;34.37;53110.31;5022545;28;20165;-65
2022/07/28 09:37:24;;;;;;;6.38;1.42;;;;;;;-144.47;34.65;53124.22;5007577;28;20026;-67
2022/07/28 09:39:51;;;;;;;8.57;1.23;;;;;;;-144.47;34.55;53120.25;5010575;28;20109;-67
2022/07/28 09:42:18;;;;;;;5.60;1.38;;;;;;;-144.47;34.71;53118.28;5010669;28;20025;-67
2022/07/28 09:44:44;;;;;;;6.53;1.27;;;;;;;-144.47;34.39;53104.38;5010228;28;20077;-66
2022/07/28 09:47:25;;;;;;;5.45;1.30;;;;;;;-144.47;34.38;53146.09;5008291;28;20030;-66
2022/07/28 09:49:51;;;;;;;11.80;1.98;;;;;;;-144.47;34.27;53094.44;4976496;28;20137;-67
2022/07/28 09:52:26;;;;;;;6.15;1.30;;;;;;;-144.47;34.21;53084.50;5009163;28;20029;-67
2022/07/28 09:54:59;;;;;;;12.90;1.45;;;;;;;-144.47;33.65;53132.19;5008876;28;20018;-66
2022/07/28 09:57:27;;;;;;;10.70;1.65;;;;;;;-144.47;33.57;53098.41;4988257;28;20112;-67
2022/07/28 09:59:53;;;;;;;7.43;1.80;;;;;;;-144.47;33.11;53110.31;5006784;28;20475;-65
2022/07/28 10:02:26;;;;;;;10.13;2.80;;;;;;;-144.47;32.83;53130.19;5001401;28;20032;-66
2022/07/28 10:04:52;;;;;;;6.00;1.15;;;;;;;-144.47;33.20;53112.31;5029086;28;20486;-66
2022/07/28 10:07:18;;;;;;;4.47;0.95;;;;;;;-144.47;33.45;53124.22;5010151;28;20021;-66
2022/07/28 10:10:04;;;;;;;10.73;1.30;;;;;;;-144.47;32.85;53098.41;5029203;28;20025;-65
2022/07/28 10:12:35;;;;;;;8.55;1.20;;;;;;;-144.47;32.68;53078.53;5028118;28;20475;-66
2022/07/28 10:18:03;;;;;;;3.95;1.38;;;;;;;-144.47;32.76;53090.47;5008018;28;20029;-66
2022/07/28 10:20:31;;;;;;;9.05;2.10;;;;;;;-144.47;32.81;53120.25;5008454;28;20044;-66
2022/07/28 10:23:01;;;;;;;8.73;1.58;;;;;;;-144.47;32.73;53116.28;4991438;28;20427;-67
2022/07/28 10:25:29;;;;;;;13.85;2.83;;;;;;;-144.47;32.73;53142.09;5021689;28;20025;-67
2022/07/28 10:27:58;;;;;;;4.35;1.58;;;;;;;-144.47;32.70;53090.47;5029023;28;20112;-66
2022/07/28 10:30:26;;;;;;;7.47;1.80;;;;;;;-144.47;32.77;53122.25;5010307;28;20347;-66
2022/07/28 10:32:55;;;;;;;3.90;1.10;;;;;;;-144.47;33.00;53120.25;5029304;28;20056;-68
2022/07/28 10:35:22;;;;;;;13.32;3.38;;;;;;;-144.47;32.58;53098.41;5014051;28;20030;-66
2022/07/28 10:37:57;;;;;;;5.38;1.23;;;;;;;-144.47;32.25;53096.41;5010096;28;20022;-67
2022/07/28 10:40:26;;;;;;;4.57;1.13;;;;;;;-144.47;32.44;53112.31;5008934;28;20034;-67
2022/07/28 10:42:52;;;;;;;4.57;1.40;;;;;;;-144.47;32.28;53128.22;5024655;28;20034;-68
2022/07/28 10:45:18;;;;;;;7.28;2.15;;;;;;;-144.47;32.25;53088.47;5012920;28;20029;-66
2022/07/28 10:47:45;;;;;;;2.97;1.08;;;;;;;-144.47;31.83;53098.41;5012339;28;20113;-66
2022/07/28 10:50:10;;;;;;;5.25;1.33;;;;;;;-144.47;31.46;53066.63;5020745;28;20117;-67
2022/07/28 10:52:39;;;;;;;4.03;1.33;;;;;;;-144.47;31.13;53090.47;5001126;28;20093;-67
2022/07/28 10:55:07;;;;;;;13.30;1.15;;;;;;;-144.47;30.99;53090.47;5003658;28;20026;-66
2022/07/28 10:57:36;;;;;;;6.35;1.50;;;;;;;-144.47;30.77;53072.59;5012862;28;20034;-66
2022/07/28 11:00:16;;;;;;;8.73;1.55;;;;;;;-144.47;30.74;53070.59;5011871;28;20506;-65
2022/07/28 11:02:57;;;;;;;7.70;1.48;;;;;;;-144.47;30.49;53080.53;4996928;28;20017;-65
2022/07/28 11:05:33;;;;;;;3.17;1.17;;;;;;;-144.47;30.51;53102.38;4983485;28;20038;-67
2022/07/28 11:08:23;;;;;;;5.72;1.25;;;;;;;-144.47;30.60;53078.53;4992949;28;20037;-66
2022/07/28 11:10:51;;;;;;;7.47;1.80;;;;;;;-144.47;30.24;53054.72;5005608;28;20116;-67
2022/07/28 11:13:34;;;;;;;4.97;1.30;;;;;;;-144.47;29.58;53038.81;5011460;28;20446;-66
2022/07/28 11:16:12;;;;;;;11.18;1.30;;;;;;;-144.47;29.43;53064.66;5012029;28;20046;-66
2022/07/28 11:19:15;;;;;;;7.37;1.60;;;;;;;-144.47;29.55;53098.41;5011277;28;20402;-67
2022/07/28 11:22:13;;;;;;;10.45;1.38;;;;;;;-144.47;29.27;53090.47;4974338;28;20026;-68
2022/07/28 11:25:01;;;;;;;6.95;1.20;;;;;;;-144.47;29.11;53042.78;5011124;28;20040;-66